Time;durP1;ratioP1;P1;durP2;ratioP2;P2;SDS_P1;SDS_P2;PMS_P1;PMS_P2;Temp;Humidity;BMP_temperature;BMP_pressure;BME280_temperature;BME280_humidity;BME280_pressure;Samples;Min_cycle;Max_cycle;Signal;HPM_P1;HPM_P2
2021/03/11 00:00:41;;;;;;;24.23;15.38;;;5.90;92.70;;;;;;6247621;23;20016;-87
2021/03/11 00:03:11;;;;;;;27.13;16.17;;;5.90;92.80;;;;;;6248208;23;20425;-87
2021/03/11 00:05:39;;;;;;;26.60;16.27;;;5.90;93.00;;;;;;6248226;23;20074;-87
2021/03/11 00:08:06;;;;;;;23.27;14.45;;;5.80;93.60;;;;;;6248487;23;20028;-88
2021/03/11 00:10:37;;;;;;;25.15;16.08;;;5.80;93.60;;;;;;6247878;23;20295;-88
2021/03/11 00:13:07;;;;;;;25.80;15.68;;;5.80;95.10;;;;;;6247949;23;20051;-89
2021/03/11 00:15:39;;;;;;;29.40;16.58;;;5.80;94.70;;;;;;6221418;23;20024;-88
2021/03/11 00:18:07;;;;;;;27.80;16.10;;;5.80;94.40;;;;;;6248398;23;20030;-87
2021/03/11 00:20:38;;;;;;;26.73;15.55;;;5.70;94.50;;;;;;6247876;23;20462;-88
2021/03/11 00:23:04;;;;;;;25.88;16.45;;;5.80;94.90;;;;;;6248652;23;20043;-87
2021/03/11 00:25:36;;;;;;;30.42;16.33;;;5.70;94.20;;;;;;6247302;23;20024;-88
2021/03/11 00:28:06;;;;;;;23.27;14.63;;;5.70;95.30;;;;;;6248479;23;20016;-89
2021/03/11 00:30:39;;;;;;;25.27;16.27;;;5.80;92.80;;;;;;6248629;23;20028;-89
2021/03/11 00:33:05;;;;;;;27.75;16.25;;;5.90;93.00;;;;;;6248855;23;20024;-86
2021/03/11 00:35:35;;;;;;;23.67;14.90;;;5.80;93.10;;;;;;6247862;23;20329;-86
2021/03/11 00:38:05;;;;;;;23.17;14.70;;;5.90;93.50;;;;;;6222827;23;20072;-87
2021/03/11 00:40:39;;;;;;;24.38;15.95;;;5.90;93.40;;;;;;6223343;23;20020;-88
2021/03/11 00:43:09;;;;;;;23.73;14.23;;;5.90;93.50;;;;;;6248606;23;20024;-88
2021/03/11 00:45:39;;;;;;;26.90;15.57;;;6.00;93.60;;;;;;6247335;23;20031;-89
2021/03/11 00:48:08;;;;;;;21.57;13.97;;;6.00;93.30;;;;;;6222313;23;20024;-88
2021/03/11 00:50:38;;;;;;;25.30;14.95;;;6.00;93.50;;;;;;6222282;23;20019;-88
2021/03/11 00:53:04;;;;;;;24.92;14.50;;;6.10;93.80;;;;;;6248133;23;20024;-86
2021/03/11 00:55:31;;;;;;;20.88;13.25;;;6.10;93.00;;;;;;6248234;23;20055;-89
2021/03/11 00:57:58;;;;;;;24.17;14.90;;;6.20;93.00;;;;;;6222826;23;20027;-87
2021/03/11 01:00:25;;;;;;;20.40;13.43;;;6.20;93.30;;;;;;6249179;23;20024;-88
2021/03/11 01:02:52;;;;;;;21.05;12.40;;;6.20;94.30;;;;;;6249070;23;20016;-87
2021/03/11 01:05:38;;;;;;;20.92;12.77;;;6.30;93.80;;;;;;6222175;23;20308;-87
2021/03/11 01:08:07;;;;;;;22.60;11.98;;;6.30;94.00;;;;;;6248641;23;20017;-88
2021/03/11 01:10:38;;;;;;;18.92;12.05;;;6.30;93.50;;;;;;6248374;23;20408;-88
2021/03/11 01:13:05;;;;;;;19.48;11.95;;;6.50;95.00;;;;;;6224508;23;20373;-88
2021/03/11 01:15:38;;;;;;;15.88;10.60;;;6.50;94.90;;;;;;6248670;23;20103;-87
2021/03/11 01:18:07;;;;;;;17.27;9.82;;;6.50;95.90;;;;;;6247647;23;20027;-87
2021/03/11 01:20:40;;;;;;;16.73;10.38;;;6.50;96.40;;;;;;6247623;23;20103;-90
2021/03/11 01:23:07;;;;;;;13.50;8.05;;;6.60;97.00;;;;;;6248007;23;20268;-88
2021/03/11 01:25:36;;;;;;;15.43;8.10;;;6.60;97.60;;;;;;6220210;23;20024;-86
2021/03/11 01:28:05;;;;;;;14.97;7.60;;;6.70;97.90;;;;;;6247594;23;20376;-86
2021/03/11 01:30:33;;;;;;;11.43;7.38;;;6.70;99.50;;;;;;6220980;23;20664;-86
2021/03/11 01:33:00;;;;;;;16.00;6.90;;;6.70;99.10;;;;;;6220439;23;20355;-86
2021/03/11 01:35:27;;;;;;;11.95;7.03;;;6.70;99.90;;;;;;6247133;23;20095;-87
2021/03/11 01:37:54;;;;;;;10.07;7.00;;;6.70;99.90;;;;;;6247783;23;20415;-89
2021/03/11 01:40:20;;;;;;;12.95;7.28;;;6.60;99.90;;;;;;6222203;23;20030;-87
2021/03/11 01:42:47;;;;;;;9.15;6.57;;;6.60;99.90;;;;;;6248381;23;20020;-89
2021/03/11 01:45:16;;;;;;;12.23;7.53;;;6.60;99.90;;;;;;6222246;23;20363;-88
2021/03/11 01:47:44;;;;;;;9.73;6.55;;;6.60;99.90;;;;;;6249003;23;20142;-87
2021/03/11 01:50:12;;;;;;;10.65;6.97;;;6.60;99.90;;;;;;6249519;23;20068;-89
2021/03/11 01:52:39;;;;;;;10.30;7.03;;;6.60;99.90;;;;;;6248218;23;20035;-87
2021/03/11 01:55:07;;;;;;;10.35;6.60;;;6.60;99.90;;;;;;6248756;23;20027;-89
2021/03/11 01:57:37;;;;;;;12.45;7.38;;;6.60;99.90;;;;;;6248808;23;20381;-89
2021/03/11 02:00:07;;;;;;;10.35;6.72;;;6.60;99.90;;;;;;6247711;23;20070;-89
2021/03/11 02:02:35;;;;;;;15.25;6.85;;;6.60;99.90;;;;;;6221990;23;20032;-89
2021/03/11 02:05:10;;;;;;;13.80;7.03;;;6.60;99.90;;;;;;6221674;23;20051;-88
2021/03/11 02:07:39;;;;;;;13.60;6.75;;;6.60;99.90;;;;;;6248251;23;20070;-89
2021/03/11 02:10:08;;;;;;;11.75;6.80;;;6.60;99.90;;;;;;6248831;23;20036;-88
2021/03/11 02:13:19;;;;;;;11.02;6.63;;;6.60;99.90;;;;;;6247529;23;20032;-88
2021/03/11 02:15:57;;;;;;;13.70;6.97;;;6.60;99.90;;;;;;6217573;23;20028;-90
2021/03/11 02:18:39;;;;;;;11.77;7.22;;;6.50;99.90;;;;;;6262508;23;20094;-89
2021/03/11 02:21:10;;;;;;;10.52;6.10;;;6.50;99.90;;;;;;6265852;22;20024;-89
2021/03/11 02:23:49;;;;;;;9.60;7.15;;;6.50;99.90;;;;;;6267787;22;20008;-89
2021/03/11 02:26:36;;;;;;;9.70;6.80;;;6.60;99.90;;;;;;6260568;23;20064;-88
2021/03/11 02:29:07;;;;;;;12.20;7.47;;;6.60;99.90;;;;;;6251696;23;20095;-90
2021/03/11 02:31:42;;;;;;;11.77;7.32;;;6.60;99.20;;;;;;6249715;23;20020;-89
2021/03/11 02:34:17;;;;;;;11.70;8.15;;;6.60;98.30;;;;;;6221993;23;20067;-88
2021/03/11 02:36:44;;;;;;;10.70;7.18;;;6.60;96.00;;;;;;6249954;23;20016;-86
2021/03/11 02:39:13;;;;;;;12.50;8.00;;;6.70;93.70;;;;;;6247928;23;20020;-88
2021/03/11 02:41:43;;;;;;;14.98;8.15;;;6.70;92.90;;;;;;6248867;23;20020;-87
2021/03/11 02:44:11;;;;;;;11.15;7.78;;;6.80;92.30;;;;;;6248190;23;20455;-88
2021/03/11 02:46:43;;;;;;;14.68;7.47;;;6.80;92.40;;;;;;6248138;23;20020;-87
2021/03/11 02:49:11;;;;;;;14.95;7.15;;;6.80;92.70;;;;;;6248108;23;20167;-87
2021/03/11 02:51:38;;;;;;;13.48;7.65;;;6.80;92.50;;;;;;6220853;23;20457;-87
2021/03/11 02:54:05;;;;;;;11.63;7.28;;;6.80;92.10;;;;;;6247221;23;20039;-87
2021/03/11 02:56:40;;;;;;;13.20;6.93;;;6.90;91.20;;;;;;6247314;23;20407;-89
2021/03/11 02:59:09;;;;;;;12.90;7.40;;;6.90;90.90;;;;;;6247695;23;20020;-89
2021/03/11 03:01:39;;;;;;;9.60;6.50;;;6.90;91.10;;;;;;6249459;23;20020;-88
2021/03/11 03:04:06;;;;;;;12.60;6.95;;;7.00;91.00;;;;;;6247752;23;20020;-88
2021/03/11 03:06:34;;;;;;;10.68;6.88;;;7.00;91.20;;;;;;6248593;23;20123;-90
2021/03/11 03:09:04;;;;;;;10.68;6.50;;;7.00;90.80;;;;;;6248852;23;20047;-88
2021/03/11 03:11:33;;;;;;;14.07;7.57;;;7.00;91.40;;;;;;6247924;23;20051;-88
2021/03/11 03:14:03;;;;;;;10.95;7.20;;;7.00;90.60;;;;;;6252583;23;20081;-88
2021/03/11 03:16:29;;;;;;;10.23;6.57;;;7.00;91.30;;;;;;6248731;23;20020;-87
2021/03/11 03:18:57;;;;;;;12.00;6.90;;;7.00;90.70;;;;;;6246837;23;20373;-88
2021/03/11 03:21:24;;;;;;;12.45;7.10;;;7.00;91.20;;;;;;6247283;23;20087;-87
2021/03/11 03:23:51;;;;;;;12.90;6.95;;;7.00;91.20;;;;;;6247583;23;20506;-88
2021/03/11 03:26:20;;;;;;;9.48;6.43;;;7.00;91.50;;;;;;6246612;23;20056;-89
2021/03/11 03:28:47;;;;;;;11.75;6.53;;;7.00;92.00;;;;;;6249074;23;20020;-89
2021/03/11 03:31:14;;;;;;;10.98;6.68;;;7.00;91.70;;;;;;6251907;23;20086;-90
2021/03/11 03:33:44;;;;;;;9.82;6.43;;;7.00;92.30;;;;;;6248534;23;20031;-87
2021/03/11 03:36:10;;;;;;;11.70;6.70;;;7.00;92.30;;;;;;6246103;23;20427;-88
2021/03/11 03:38:38;;;;;;;9.35;6.25;;;7.00;93.20;;;;;;6247727;23;20077;-88
2021/03/11 03:41:05;;;;;;;12.00;6.50;;;7.00;93.50;;;;;;6247324;23;20051;-88
2021/03/11 03:43:35;;;;;;;11.02;5.97;;;7.00;95.30;;;;;;6247482;23;20024;-88
2021/03/11 03:46:29;;;;;;;8.77;5.10;;;7.00;96.40;;;;;;6247277;23;20022;-89
2021/03/11 03:48:58;;;;;;;7.30;4.53;;;7.30;99.90;;;;;;6212927;23;20080;-86
2021/03/11 03:51:29;;;;;;;9.77;5.20;;;7.50;99.90;;;;;;6248257;23;20032;-89
2021/03/11 03:54:21;;;;;;;10.05;5.53;;;7.70;99.90;;;;;;6246584;23;20035;-88
2021/03/11 03:57:16;;;;;;;9.77;5.18;;;7.90;99.90;;;;;;6247369;23;20024;-87
2021/03/11 03:59:45;;;;;;;8.20;4.63;;;8.00;99.90;;;;;;6238407;23;20058;-89
2021/03/11 04:02:14;;;;;;;9.40;4.90;;;8.00;99.90;;;;;;6246930;23;20040;-90
2021/03/11 04:04:48;;;;;;;7.07;4.32;;;8.10;99.90;;;;;;6247776;23;20021;-88
2021/03/11 04:07:23;;;;;;;11.02;5.00;;;8.10;99.90;;;;;;6247376;23;20090;-89
2021/03/11 04:09:53;;;;;;;6.75;4.28;;;8.00;99.90;;;;;;6246283;23;20099;-87
2021/03/11 04:12:21;;;;;;;11.68;5.25;;;8.00;99.90;;;;;;6220652;23;20333;-88
2021/03/11 04:14:50;;;;;;;8.45;4.85;;;8.00;99.90;;;;;;6247319;23;20058;-88
2021/03/11 04:17:21;;;;;;;6.53;4.80;;;8.10;99.90;;;;;;6249266;23;20020;-87
2021/03/11 04:19:50;;;;;;;7.45;4.40;;;8.10;99.90;;;;;;6247001;23;20094;-87
2021/03/11 04:22:18;;;;;;;6.43;4.20;;;8.10;99.90;;;;;;6246095;23;20276;-87
2021/03/11 04:24:45;;;;;;;8.13;4.88;;;8.10;99.90;;;;;;6246937;23;20052;-90
2021/03/11 04:27:12;;;;;;;9.65;4.43;;;8.10;99.90;;;;;;6247560;23;20040;-87
2021/03/11 04:29:40;;;;;;;6.10;4.07;;;8.10;99.90;;;;;;6220030;23;20039;-87
2021/03/11 04:32:08;;;;;;;9.43;4.70;;;8.10;99.90;;;;;;6246382;23;20034;-87
2021/03/11 04:34:39;;;;;;;6.90;4.35;;;8.10;99.90;;;;;;6245643;23;20102;-88
2021/03/11 04:37:06;;;;;;;5.63;4.25;;;8.10;99.90;;;;;;6220451;23;20046;-89
2021/03/11 04:39:34;;;;;;;8.10;4.47;;;8.10;99.90;;;;;;6245960;23;20439;-89
2021/03/11 04:42:05;;;;;;;5.95;4.22;;;8.10;99.90;;;;;;6220017;23;20027;-87
2021/03/11 04:44:33;;;;;;;9.07;4.55;;;8.10;99.90;;;;;;6245924;23;20020;-88
2021/03/11 04:47:00;;;;;;;7.80;4.30;;;8.00;99.90;;;;;;6248976;23;20410;-90
2021/03/11 04:49:31;;;;;;;7.43;4.72;;;8.00;99.90;;;;;;6248812;23;20023;-90
2021/03/11 04:52:00;;;;;;;8.40;4.88;;;8.10;99.90;;;;;;6249454;23;20076;-88
2021/03/11 04:54:27;;;;;;;10.95;4.95;;;8.10;99.90;;;;;;6248328;23;20016;-88
2021/03/11 04:56:56;;;;;;;10.45;4.70;;;8.10;99.90;;;;;;6248526;23;20020;-86
2021/03/11 04:59:23;;;;;;;5.28;4.32;;;8.10;99.90;;;;;;6237186;23;20090;-91
2021/03/11 05:01:54;;;;;;;8.32;4.68;;;8.00;99.90;;;;;;6260597;23;20050;-87
2021/03/11 05:04:22;;;;;;;7.00;4.40;;;8.10;99.90;;;;;;6264479;23;20020;-86
2021/03/11 05:06:49;;;;;;;12.30;4.70;;;8.10;99.90;;;;;;6267089;22;20066;-87
2021/03/11 05:09:17;;;;;;;8.38;4.53;;;8.10;99.90;;;;;;6260379;23;20020;-88
2021/03/11 05:11:44;;;;;;;5.82;4.30;;;8.10;99.90;;;;;;6228658;23;20323;-89
2021/03/11 05:14:11;;;;;;;8.73;4.80;;;8.00;99.90;;;;;;6250294;23;20017;-87
2021/03/11 05:16:38;;;;;;;6.55;4.50;;;8.00;99.90;;;;;;6249258;23;20016;-89
2021/03/11 05:19:06;;;;;;;8.27;4.63;;;8.00;99.90;;;;;;6248656;23;20024;-84
2021/03/11 05:21:34;;;;;;;10.90;4.95;;;8.00;99.90;;;;;;6247759;23;20150;-89
2021/03/11 05:24:02;;;;;;;7.95;4.63;;;8.00;99.90;;;;;;6247693;23;20016;-87
2021/03/11 05:26:28;;;;;;;9.68;4.82;;;7.90;99.90;;;;;;6249454;23;20024;-87
2021/03/11 05:28:55;;;;;;;10.30;5.00;;;7.90;99.90;;;;;;6223191;23;20036;-87
2021/03/11 05:31:22;;;;;;;9.80;5.00;;;7.90;99.90;;;;;;6248748;23;20032;-87
2021/03/11 05:33:48;;;;;;;8.77;5.15;;;7.90;99.90;;;;;;6197661;23;20071;-89
2021/03/11 05:36:19;;;;;;;8.80;4.63;;;7.90;99.90;;;;;;6248604;23;20020;-88
2021/03/11 05:38:46;;;;;;;13.60;4.97;;;7.90;99.90;;;;;;6221961;23;20020;-88
2021/03/11 05:41:13;;;;;;;7.60;4.35;;;7.90;99.90;;;;;;6222663;23;20407;-87
2021/03/11 05:43:42;;;;;;;6.13;4.25;;;8.00;99.90;;;;;;6223720;23;20039;-87
2021/03/11 05:46:12;;;;;;;7.80;4.38;;;8.10;99.90;;;;;;6249411;23;20074;-89
2021/03/11 05:48:40;;;;;;;5.22;4.20;;;8.10;99.90;;;;;;6248981;23;20020;-87
2021/03/11 05:51:08;;;;;;;10.18;4.22;;;8.10;99.90;;;;;;6246425;23;20032;-84
2021/03/11 05:53:37;;;;;;;5.88;3.72;;;8.10;99.90;;;;;;6248016;23;20028;-85
2021/03/11 05:56:06;;;;;;;7.50;4.10;;;8.10;99.90;;;;;;6248752;23;20059;-87
2021/03/11 05:58:33;;;;;;;7.38;4.18;;;8.10;99.90;;;;;;6221111;23;20020;-86
2021/03/11 06:01:05;;;;;;;6.30;4.05;;;8.20;99.90;;;;;;6221794;23;20027;-86
2021/03/11 06:03:35;;;;;;;7.27;4.20;;;8.20;99.90;;;;;;6247075;23;20058;-86
2021/03/11 06:06:02;;;;;;;7.20;3.85;;;8.20;99.90;;;;;;6247117;23;20016;-86
2021/03/11 06:08:31;;;;;;;5.22;3.70;;;8.20;99.90;;;;;;6246664;23;20020;-85
2021/03/11 06:10:58;;;;;;;8.68;4.15;;;8.20;99.90;;;;;;6246658;23;20028;-85
2021/03/11 06:13:25;;;;;;;9.82;3.90;;;8.20;99.90;;;;;;6220582;23;20095;-86
2021/03/11 06:16:08;;;;;;;6.63;3.78;;;8.30;99.90;;;;;;6246924;23;20309;-87
2021/03/11 06:18:38;;;;;;;6.90;4.10;;;8.30;99.90;;;;;;6247384;23;20039;-85
2021/03/11 06:21:06;;;;;;;6.60;3.60;;;8.30;99.90;;;;;;6247968;23;20020;-86
2021/03/11 06:23:33;;;;;;;9.18;3.90;;;8.40;99.90;;;;;;6220846;23;20366;-88
2021/03/11 06:26:02;;;;;;;5.82;3.25;;;8.40;99.90;;;;;;6220811;23;20042;-87
2021/03/11 06:28:44;;;;;;;5.95;3.80;;;8.40;99.90;;;;;;6247115;23;20031;-87
2021/03/11 06:31:24;;;;;;;4.38;3.20;;;8.40;99.90;;;;;;6246792;23;20122;-85
2021/03/11 06:33:52;;;;;;;7.90;3.25;;;8.60;99.90;;;;;;6246594;23;20024;-88
2021/03/11 06:36:21;;;;;;;4.57;3.13;;;8.60;99.90;;;;;;6249895;23;20050;-87
2021/03/11 06:38:48;;;;;;;4.63;3.30;;;8.60;99.90;;;;;;6246686;23;20327;-90
2021/03/11 06:41:20;;;;;;;6.97;3.45;;;8.60;99.90;;;;;;6221477;23;20107;-88
2021/03/11 06:43:54;;;;;;;5.05;3.47;;;8.70;99.90;;;;;;6221153;23;20307;-89
2021/03/11 06:46:28;;;;;;;11.35;3.38;;;8.70;99.90;;;;;;6221440;23;20099;-91
2021/03/11 06:49:12;;;;;;;8.85;4.18;;;8.70;99.90;;;;;;6247876;23;20020;-89
2021/03/11 06:51:39;;;;;;;5.10;3.20;;;8.80;99.90;;;;;;6247585;23;20031;-86
2021/03/11 06:54:08;;;;;;;4.97;2.72;;;8.80;99.90;;;;;;6249278;23;20082;-87
2021/03/11 06:56:42;;;;;;;7.75;3.47;;;8.90;99.90;;;;;;6248507;23;20024;-90
2021/03/11 06:59:08;;;;;;;3.90;2.63;;;8.90;99.90;;;;;;6251198;23;20039;-88
2021/03/11 07:01:55;;;;;;;6.93;3.15;;;8.90;99.90;;;;;;6250609;23;20058;-88
2021/03/11 07:04:30;;;;;;;5.35;3.08;;;8.90;99.90;;;;;;6248291;23;20020;-88
2021/03/11 07:06:58;;;;;;;5.10;2.67;;;9.00;99.90;;;;;;6248550;23;20051;-89
2021/03/11 07:09:42;;;;;;;3.50;2.40;;;9.00;99.90;;;;;;6248078;23;20082;-89
2021/03/11 07:12:16;;;;;;;6.32;2.90;;;9.00;99.90;;;;;;6249582;23;20046;-90
2021/03/11 07:14:47;;;;;;;5.50;3.42;;;9.10;99.90;;;;;;6249712;23;20068;-88
2021/03/11 07:17:22;;;;;;;6.43;3.13;;;9.10;99.90;;;;;;6222230;23;20103;-87
2021/03/11 07:20:14;;;;;;;7.43;2.75;;;9.20;99.90;;;;;;6221978;23;20319;-88
2021/03/11 07:23:05;;;;;;;5.03;2.60;;;9.30;99.90;;;;;;6264309;23;20076;-89
2021/03/11 07:25:46;;;;;;;6.45;2.75;;;9.30;99.90;;;;;;6267461;22;20012;-88
2021/03/11 07:28:26;;;;;;;4.65;2.80;;;9.30;99.90;;;;;;6212085;23;20030;-88
2021/03/11 07:30:58;;;;;;;3.35;2.67;;;9.50;99.90;;;;;;6254939;23;20024;-87
2021/03/11 07:33:28;;;;;;;7.20;2.60;;;9.50;99.90;;;;;;6221624;23;20020;-89
2021/03/11 07:36:00;;;;;;;6.63;2.53;;;9.50;99.90;;;;;;6246621;23;20442;-89
2021/03/11 07:38:33;;;;;;;6.45;2.58;;;9.50;99.90;;;;;;6246935;23;20023;-90
2021/03/11 07:41:28;;;;;;;5.03;2.33;;;9.60;99.90;;;;;;6248147;23;20073;-88
2021/03/11 07:43:55;;;;;;;3.13;2.67;;;9.60;99.90;;;;;;6197088;23;20082;-88
2021/03/11 07:46:23;;;;;;;3.35;2.67;;;9.60;99.90;;;;;;6248358;23;20031;-89
2021/03/11 07:48:51;;;;;;;4.85;2.60;;;9.60;99.90;;;;;;6221272;23;20020;-88
2021/03/11 07:51:22;;;;;;;5.28;2.67;;;9.60;99.90;;;;;;6247821;23;20024;-89
2021/03/11 07:53:49;;;;;;;5.53;2.70;;;9.70;99.90;;;;;;6248099;23;20356;-90
2021/03/11 07:56:18;;;;;;;4.70;2.50;;;9.60;99.90;;;;;;6250806;23;20020;-87
2021/03/11 07:58:53;;;;;;;4.32;2.90;;;9.60;99.90;;;;;;6249753;23;20024;-90
2021/03/11 08:01:23;;;;;;;4.82;2.50;;;9.70;99.90;;;;;;6221809;23;20423;-90
2021/03/11 08:03:53;;;;;;;3.50;2.15;;;9.80;99.90;;;;;;6251174;23;20028;-90
2021/03/11 08:06:29;;;;;;;3.53;2.42;;;9.80;99.90;;;;;;6249090;23;20078;-90
2021/03/11 08:08:56;;;;;;;3.58;2.47;;;9.90;99.90;;;;;;6222698;23;20028;-91
2021/03/11 08:11:41;;;;;;;4.05;2.58;;;10.00;99.90;;;;;;6249470;23;20024;-87
2021/03/11 08:14:27;;;;;;;5.32;2.28;;;10.10;99.90;;;;;;6221983;23;20031;-89
2021/03/11 08:17:14;;;;;;;5.18;2.10;;;10.20;99.90;;;;;;6247251;23;20055;-88
2021/03/11 08:19:41;;;;;;;3.53;2.28;;;10.30;99.90;;;;;;6247051;23;20024;-87
2021/03/11 08:22:12;;;;;;;2.70;2.22;;;10.40;99.90;;;;;;6250462;23;20099;-91
2021/03/11 08:24:51;;;;;;;3.25;2.08;;;10.40;99.90;;;;;;6250294;23;20020;-90
2021/03/11 08:27:30;;;;;;;5.03;2.15;;;10.40;99.90;;;;;;6224690;23;20032;-89
2021/03/11 08:30:00;;;;;;;4.28;2.10;;;10.40;99.90;;;;;;6249973;23;20423;-87
2021/03/11 08:32:51;;;;;;;4.57;2.28;;;10.50;99.90;;;;;;6248649;23;20099;-87
2021/03/11 08:35:27;;;;;;;2.58;1.77;;;10.60;99.90;;;;;;6222342;23;20031;-87
2021/03/11 08:38:21;;;;;;;3.40;2.15;;;10.60;99.90;;;;;;6238261;23;20375;-87
2021/03/11 08:41:09;;;;;;;4.22;1.90;;;10.70;99.90;;;;;;6248276;23;20020;-87
2021/03/11 08:43:36;;;;;;;4.55;2.40;;;10.70;99.90;;;;;;6248232;23;20040;-87
2021/03/11 08:46:14;;;;;;;3.35;2.25;;;10.60;99.90;;;;;;6249360;23;20027;-87
2021/03/11 08:49:00;;;;;;;3.28;1.90;;;10.60;99.90;;;;;;6223823;23;20016;-86
2021/03/11 08:51:27;;;;;;;5.35;2.28;;;10.70;99.90;;;;;;6247798;23;20024;-88
2021/03/11 08:54:02;;;;;;;6.32;1.80;;;10.90;99.90;;;;;;6247785;23;20028;-89
2021/03/11 08:56:29;;;;;;;6.78;2.67;;;11.10;99.90;;;;;;6256563;23;20118;-89
2021/03/11 08:59:13;;;;;;;3.17;1.70;;;11.20;99.90;;;;;;6258503;23;20323;-85
2021/03/11 09:01:53;;;;;;;3.97;2.20;;;11.40;99.90;;;;;;6257469;23;20024;-85
2021/03/11 09:04:21;;;;;;;1.98;1.70;;;11.70;99.60;;;;;;6224173;23;20019;-86
2021/03/11 09:06:51;;;;;;;3.35;1.70;;;11.90;97.60;;;;;;6247336;23;20024;-86
2021/03/11 09:09:39;;;;;;;2.70;1.80;;;12.10;97.70;;;;;;6220519;23;20024;-86
2021/03/11 09:12:35;;;;;;;3.88;2.15;;;12.40;95.00;;;;;;6220665;23;20067;-87
2021/03/11 09:15:05;;;;;;;4.40;1.83;;;12.50;94.40;;;;;;6243758;23;20016;-89
2021/03/11 09:17:33;;;;;;;2.75;1.58;;;12.40;93.80;;;;;;6246478;23;20099;-87
2021/03/11 09:20:13;;;;;;;3.28;1.85;;;12.30;94.20;;;;;;6246960;23;20073;-85
2021/03/11 09:22:47;;;;;;;4.97;1.40;;;12.40;94.40;;;;;;6247284;23;20020;-86
2021/03/11 09:25:25;;;;;;;4.85;1.85;;;12.30;94.00;;;;;;6246308;23;20023;-87
2021/03/11 09:28:04;;;;;;;4.80;1.92;;;12.20;96.10;;;;;;6246795;23;20027;-88
2021/03/11 09:30:36;;;;;;;2.90;1.52;;;12.10;96.70;;;;;;6223715;23;20108;-89
2021/03/11 09:36:17;;;;;;;2.63;1.40;;;12.20;96.60;;;;;;6245584;23;20020;-91
2021/03/11 09:38:48;;;;;;;2.85;1.50;;;12.10;97.00;;;;;;6262821;23;20052;-89
2021/03/11 09:41:46;;;;;;;2.08;1.50;;;12.20;97.00;;;;;;6265973;23;20031;-88
2021/03/11 09:44:12;;;;;;;1.50;1.10;;;12.30;97.30;;;;;;6265907;22;20016;-87
2021/03/11 09:46:47;;;;;;;;;;;12.20;96.70;;;;;;6265442;23;20043;-88
2021/03/11 09:52:17;;;;;;;3.30;1.35;;;12.50;95.30;;;;;;6128748;23;20050;-90
2021/03/11 09:54:58;;;;;;;4.28;1.17;;;13.00;93.20;;;;;;6237736;23;20030;-92
2021/03/11 09:57:58;;;;;;;;;;;;;;;;;;;;;
2021/03/11 10:00:50;;;;;;;1.75;1.02;;;12.90;94.80;;;;;;6247329;23;20024;-88
2021/03/11 10:03:21;;;;;;;1.27;0.93;;;12.40;98.40;;;;;;6246790;23;20065;-88
2021/03/11 10:05:59;;;;;;;4.15;1.30;;;12.30;99.90;;;;;;6248409;23;20020;-86
2021/03/11 10:08:34;;;;;;;4.10;1.33;;;12.10;99.90;;;;;;6247622;23;20070;-89
2021/03/11 10:11:07;;;;;;;2.13;1.05;;;12.00;99.90;;;;;;6247021;23;20032;-89
2021/03/11 10:14:01;;;;;;;1.23;0.90;;;11.90;99.90;;;;;;6248258;23;20403;-87
2021/03/11 10:16:46;;;;;;;1.50;1.05;;;11.90;99.90;;;;;;6248497;23;20038;-88
2021/03/11 10:19:43;;;;;;;1.05;0.95;;;11.90;99.90;;;;;;6249122;23;20032;-88
2021/03/11 10:22:19;;;;;;;2.03;1.20;;;12.00;99.90;;;;;;6251021;23;20035;-89
2021/03/11 10:24:53;;;;;;;1.52;0.85;;;12.00;99.90;;;;;;6249325;23;20024;-88
2021/03/11 10:27:28;;;;;;;1.00;0.88;;;12.00;99.90;;;;;;6250020;23;20323;-90
2021/03/11 10:30:09;;;;;;;3.42;1.20;;;12.00;99.90;;;;;;6248786;23;20359;-88
2021/03/11 10:33:19;;;;;;;3.20;1.17;;;12.00;99.90;;;;;;6222107;23;20012;-91
2021/03/11 10:35:53;;;;;;;1.60;1.10;;;12.00;99.90;;;;;;6246650;23;20013;-87
2021/03/11 10:38:29;;;;;;;1.35;1.00;;;12.00;99.90;;;;;;6248843;23;20020;-89
2021/03/11 10:41:52;;;;;;;1.85;1.30;;;12.00;99.90;;;;;;6248830;23;20576;-88
2021/03/11 10:44:58;;;;;;;3.72;1.23;;;12.10;99.90;;;;;;6177185;23;20016;-90
2021/03/11 10:47:27;;;;;;;2.63;1.00;;;12.60;99.90;;;;;;6223604;23;20031;-90
2021/03/11 10:50:24;;;;;;;3.05;1.85;;;12.60;99.90;;;;;;6137245;23;20494;-87
2021/03/11 10:52:56;;;;;;;2.78;1.10;;;12.50;99.90;;;;;;6156765;23;20174;-89
2021/03/11 10:56:00;;;;;;;3.95;0.95;;;12.50;99.90;;;;;;6157510;23;20022;-88
2021/03/11 10:59:23;;;;;;;1.90;1.20;;;12.40;99.90;;;;;;6156769;23;20041;-89
2021/03/11 11:01:52;;;;;;;2.63;1.17;;;12.40;99.90;;;;;;6155891;23;20332;-90
2021/03/11 11:04:22;;;;;;;3.65;1.20;;;12.50;99.90;;;;;;6129731;23;20025;-89
2021/03/11 11:06:51;;;;;;;2.72;1.13;;;12.50;99.90;;;;;;6154818;23;20021;-90
2021/03/11 11:09:17;;;;;;;2.22;1.35;;;12.50;99.90;;;;;;6130398;23;20065;-89
2021/03/11 11:11:44;;;;;;;4.13;1.13;;;12.40;99.90;;;;;;6108235;23;20132;-86
2021/03/11 11:14:11;;;;;;;1.63;1.10;;;12.20;99.90;;;;;;6192812;23;20028;-89
2021/03/11 11:16:39;;;;;;;3.95;1.20;;;12.00;99.90;;;;;;6247217;23;20091;-88
2021/03/11 11:19:06;;;;;;;3.92;1.58;;;11.70;99.90;;;;;;6221533;23;20208;-89
2021/03/11 11:21:34;;;;;;;1.67;1.10;;;11.40;99.90;;;;;;6247295;23;20052;-89
2021/03/11 11:24:01;;;;;;;5.18;1.42;;;11.30;99.90;;;;;;6219929;23;20412;-90
2021/03/11 11:26:28;;;;;;;1.85;1.33;;;11.10;99.90;;;;;;6220740;23;20020;-89
2021/03/11 11:28:54;;;;;;;4.65;1.40;;;10.90;99.90;;;;;;6247003;23;20029;-84
2021/03/11 11:31:21;;;;;;;1.48;1.35;;;10.80;99.90;;;;;;6220798;23;20372;-90
2021/03/11 11:33:48;;;;;;;5.72;1.85;;;10.80;99.90;;;;;;6248259;23;20055;-89
2021/03/11 11:36:15;;;;;;;2.92;1.42;;;10.70;99.90;;;;;;6248645;23;20082;-90
2021/03/11 11:38:41;;;;;;;2.45;1.30;;;10.60;99.90;;;;;;6251874;23;20086;-89
2021/03/11 11:41:10;;;;;;;3.72;1.17;;;10.50;99.90;;;;;;6246105;23;20038;-89
2021/03/11 11:43:38;;;;;;;1.90;1.48;;;10.50;99.90;;;;;;6247640;23;20419;-89
2021/03/11 11:46:07;;;;;;;3.17;1.52;;;10.40;99.90;;;;;;6246045;23;20016;-88
2021/03/11 11:48:42;;;;;;;3.08;1.70;;;10.40;99.90;;;;;;6195353;23;20110;-89
2021/03/11 11:51:08;;;;;;;1.58;1.48;;;10.30;99.90;;;;;;6221413;23;20024;-85
2021/03/11 11:53:37;;;;;;;2.60;1.50;;;10.30;99.90;;;;;;6246728;23;20024;-86
2021/03/11 11:56:07;;;;;;;1.60;1.50;;;10.30;99.90;;;;;;6248488;23;20099;-90
2021/03/11 11:58:43;;;;;;;5.63;1.50;;;10.20;99.90;;;;;;6251973;23;20465;-90
2021/03/11 12:01:14;;;;;;;1.50;1.40;;;10.20;99.90;;;;;;6250300;23;20388;-90
2021/03/11 12:03:41;;;;;;;1.40;1.25;;;10.30;99.90;;;;;;6250112;23;20040;-91
2021/03/11 12:06:13;;;;;;;2.95;1.48;;;10.40;99.90;;;;;;6248784;23;20440;-88
2021/03/11 12:08:40;;;;;;;1.70;1.30;;;10.50;99.90;;;;;;6249594;23;20095;-88
2021/03/11 12:11:07;;;;;;;5.18;1.90;;;10.50;99.90;;;;;;6247976;23;20024;-87
2021/03/11 12:13:42;;;;;;;4.07;1.40;;;10.60;99.90;;;;;;6249444;23;20435;-89
2021/03/11 12:16:08;;;;;;;1.58;1.48;;;10.60;99.90;;;;;;6250282;23;20107;-87
2021/03/11 12:18:40;;;;;;;3.58;1.40;;;10.60;99.90;;;;;;6250436;23;20465;-89
2021/03/11 12:21:09;;;;;;;3.13;1.20;;;10.60;99.90;;;;;;6224072;23;20016;-91
2021/03/11 12:23:51;;;;;;;1.40;1.30;;;10.60;99.90;;;;;;6225356;23;20015;-88
2021/03/11 12:26:28;;;;;;;2.85;1.30;;;10.60;99.90;;;;;;6250241;23;20090;-91
2021/03/11 12:28:54;;;;;;;1.95;1.33;;;10.70;99.90;;;;;;6249574;23;20066;-87
2021/03/11 12:31:21;;;;;;;9.32;1.75;;;10.80;99.90;;;;;;6248990;23;20020;-87
2021/03/11 12:33:52;;;;;;;2.60;1.77;;;10.90;99.90;;;;;;6248166;23;20132;-88
2021/03/11 12:36:21;;;;;;;2.10;1.40;;;11.00;99.90;;;;;;6247873;23;20024;-85
2021/03/11 12:38:47;;;;;;;1.50;1.20;;;11.00;99.90;;;;;;6246711;23;20073;-87
2021/03/11 12:41:16;;;;;;;1.85;1.50;;;11.00;99.90;;;;;;6222166;23;20020;-88
2021/03/11 12:43:44;;;;;;;2.10;1.45;;;11.10;99.90;;;;;;6248511;23;20324;-87
2021/03/11 12:46:13;;;;;;;2.90;1.30;;;11.20;99.90;;;;;;6257602;23;20090;-88
2021/03/11 12:48:48;;;;;;;1.30;1.20;;;11.20;99.90;;;;;;6253736;23;20078;-87
2021/03/11 12:51:15;;;;;;;1.92;1.48;;;11.20;99.90;;;;;;6204759;23;20423;-86
2021/03/11 12:53:41;;;;;;;2.97;1.50;;;11.30;99.90;;;;;;6260039;23;20068;-87
2021/03/11 12:56:08;;;;;;;1.40;1.30;;;11.50;99.90;;;;;;6252563;23;20031;-89
2021/03/11 12:58:34;;;;;;;1.83;1.40;;;11.70;99.90;;;;;;6250055;23;20368;-86
2021/03/11 13:01:01;;;;;;;1.77;1.30;;;11.50;99.90;;;;;;6222382;23;20016;-89
2021/03/11 13:03:28;;;;;;;1.77;1.38;;;11.40;99.90;;;;;;6245733;23;20439;-90
2021/03/11 13:05:57;;;;;;;1.40;1.20;;;11.20;99.90;;;;;;6248053;23;20074;-90
2021/03/11 13:08:29;;;;;;;4.25;1.38;;;11.10;99.90;;;;;;6247161;23;20095;-90
2021/03/11 13:10:57;;;;;;;2.00;1.50;;;10.90;99.90;;;;;;6246557;23;20157;-90
2021/03/11 13:13:24;;;;;;;2.38;2.15;;;10.90;99.90;;;;;;6247758;23;20092;-89
2021/03/11 13:15:57;;;;;;;1.70;1.40;;;10.80;99.90;;;;;;6247259;23;20090;-87
2021/03/11 13:18:26;;;;;;;1.70;1.50;;;10.80;99.90;;;;;;6247286;23;20020;-88
2021/03/11 13:20:53;;;;;;;1.50;1.40;;;10.90;99.90;;;;;;6246835;23;20090;-88
2021/03/11 13:23:20;;;;;;;1.70;1.40;;;11.10;99.90;;;;;;6247071;23;20020;-88